Time;durP1;ratioP1;P1;durP2;ratioP2;P2;SDS_P1;SDS_P2;PMS_P1;PMS_P2;Temp;Humidity;BMP_temperature;BMP_pressure;BME280_temperature;BME280_humidity;BME280_pressure;Samples;Min_cycle;Max_cycle;Signal;HPM_P1;HPM_P2
2021/04/29 00:00:13;;;;;;;2.10;1.40;;;22.30;26.20;;;;;;5063855;28;20036;-54
2021/04/29 00:02:41;;;;;;;1.50;1.27;;;22.30;26.30;;;;;;5064115;28;20020;-58
2021/04/29 00:05:09;;;;;;;1.85;1.30;;;22.20;26.30;;;;;;5061137;28;20045;-58
2021/04/29 00:07:36;;;;;;;1.52;1.23;;;22.30;26.40;;;;;;5059929;28;20096;-57
2021/04/29 00:10:04;;;;;;;2.10;1.33;;;22.30;26.50;;;;;;5044029;28;20028;-59
2021/04/29 00:12:30;;;;;;;1.75;1.05;;;22.30;26.50;;;;;;5062450;28;20032;-59
2021/04/29 00:14:56;;;;;;;2.60;1.48;;;22.20;26.50;;;;;;5067016;28;20040;-52
2021/04/29 00:17:22;;;;;;;1.33;1.17;;;22.20;26.50;;;;;;5069972;28;20359;-58
2021/04/29 00:19:48;;;;;;;1.83;1.40;;;22.20;26.60;;;;;;5065767;28;20025;-61
2021/04/29 00:22:13;;;;;;;3.40;1.20;;;22.20;26.60;;;;;;5046770;28;20032;-57
2021/04/29 00:24:39;;;;;;;2.33;1.20;;;22.20;26.60;;;;;;5066604;28;20032;-58
2021/04/29 00:27:05;;;;;;;2.35;1.50;;;22.20;26.60;;;;;;5064470;28;20089;-56
2021/04/29 00:29:31;;;;;;;1.60;1.08;;;22.20;26.60;;;;;;5050165;28;20432;-57
2021/04/29 00:31:57;;;;;;;1.98;1.40;;;22.20;26.60;;;;;;5073757;28;20032;-56
2021/04/29 00:34:23;;;;;;;1.88;1.20;;;22.20;26.60;;;;;;5066369;28;20578;-57
2021/04/29 00:36:50;;;;;;;2.22;1.55;;;22.10;26.60;;;;;;5045258;28;20333;-53
2021/04/29 00:39:15;;;;;;;2.08;1.20;;;22.10;26.60;;;;;;5064426;28;20024;-59
2021/04/29 00:41:41;;;;;;;1.75;1.23;;;22.20;26.70;;;;;;5067748;28;20091;-55
2021/04/29 00:44:07;;;;;;;2.28;1.30;;;22.10;26.70;;;;;;5064391;28;20041;-57
2021/04/29 00:46:36;;;;;;;2.55;1.30;;;22.10;26.70;;;;;;5065352;28;20060;-60
2021/04/29 00:49:02;;;;;;;1.48;1.20;;;22.10;26.70;;;;;;5072088;28;20028;-59
2021/04/29 00:51:28;;;;;;;2.13;1.35;;;22.10;26.80;;;;;;5074541;28;20451;-56
2021/04/29 00:53:53;;;;;;;1.88;1.45;;;22.10;26.80;;;;;;5074139;28;20086;-59
2021/04/29 00:56:20;;;;;;;1.17;0.98;;;22.10;26.80;;;;;;5065616;28;20032;-55
2021/04/29 00:58:49;;;;;;;1.48;1.20;;;22.10;26.90;;;;;;5077673;28;20032;-59
2021/04/29 01:01:15;;;;;;;1.38;1.08;;;22.10;26.90;;;;;;5070963;28;20025;-57
2021/04/29 01:03:56;;;;;;;1.33;1.20;;;22.10;26.90;;;;;;5082676;28;20067;-58
2021/04/29 01:06:41;;;;;;;1.40;1.20;;;22.10;26.90;;;;;;5072022;28;20063;-56
2021/04/29 01:09:12;;;;;;;2.30;1.40;;;22.00;26.90;;;;;;5070807;28;20043;-58
2021/04/29 01:11:41;;;;;;;2.97;1.60;;;22.00;26.90;;;;;;5072212;28;20356;-57
2021/04/29 01:14:10;;;;;;;1.58;1.10;;;22.00;27.00;;;;;;5074282;28;20352;-57
2021/04/29 01:16:38;;;;;;;2.13;1.17;;;22.00;27.00;;;;;;5074028;28;20029;-57
2021/04/29 01:19:08;;;;;;;1.98;1.02;;;22.00;27.10;;;;;;5058841;28;20348;-52
2021/04/29 01:21:36;;;;;;;1.95;1.55;;;22.00;27.00;;;;;;5073118;28;20112;-55
2021/04/29 01:24:13;;;;;;;1.92;1.30;;;22.00;27.10;;;;;;5065476;28;20047;-57
2021/04/29 01:26:50;;;;;;;1.67;1.25;;;22.00;27.10;;;;;;5067876;28;20414;-58
2021/04/29 01:29:27;;;;;;;1.75;1.30;;;22.00;27.10;;;;;;5071511;28;20111;-59
2021/04/29 01:31:55;;;;;;;4.32;1.38;;;22.00;27.10;;;;;;5077302;28;20032;-55
2021/04/29 01:34:24;;;;;;;1.52;1.10;;;21.90;27.10;;;;;;5065194;28;20032;-58
2021/04/29 01:36:52;;;;;;;3.15;1.48;;;22.00;27.20;;;;;;5069891;28;20037;-55
2021/04/29 01:39:18;;;;;;;2.10;1.20;;;21.90;27.20;;;;;;5067289;28;20432;-57
2021/04/29 01:41:47;;;;;;;1.73;1.10;;;21.90;27.20;;;;;;5078328;28;20032;-58
2021/04/29 01:44:15;;;;;;;1.23;1.10;;;21.90;27.30;;;;;;5072805;28;20068;-57
2021/04/29 01:46:42;;;;;;;1.90;1.42;;;21.90;27.30;;;;;;5070664;28;20052;-59
2021/04/29 01:49:10;;;;;;;1.50;1.10;;;21.90;27.30;;;;;;5068859;28;20116;-58
2021/04/29 01:51:38;;;;;;;1.73;1.45;;;21.90;27.40;;;;;;5062835;28;20039;-52
2021/04/29 01:54:05;;;;;;;1.60;1.17;;;21.90;27.40;;;;;;5074730;28;20024;-59
2021/04/29 01:56:32;;;;;;;1.35;1.20;;;21.90;27.40;;;;;;5072214;28;20060;-58
2021/04/29 01:58:59;;;;;;;1.70;1.40;;;21.90;27.40;;;;;;5055868;28;20025;-58
2021/04/29 02:01:25;;;;;;;1.40;1.20;;;21.90;27.50;;;;;;5076682;28;20131;-54
2021/04/29 02:03:53;;;;;;;1.35;1.00;;;21.90;27.50;;;;;;5071300;28;20056;-56
2021/04/29 02:06:21;;;;;;;1.60;1.00;;;21.90;27.50;;;;;;5073522;28;20052;-54
2021/04/29 02:08:46;;;;;;;1.67;1.27;;;21.90;27.60;;;;;;5070852;28;20032;-60
2021/04/29 02:11:14;;;;;;;1.45;1.20;;;21.80;27.60;;;;;;5078666;28;20348;-60
2021/04/29 02:13:42;;;;;;;2.42;1.38;;;21.90;27.60;;;;;;5071566;28;20023;-56
2021/04/29 02:16:16;;;;;;;1.75;1.30;;;21.90;27.70;;;;;;5075200;28;20435;-58
2021/04/29 02:18:50;;;;;;;1.20;1.08;;;21.80;27.70;;;;;;5077090;28;20051;-56
2021/04/29 02:21:19;;;;;;;1.75;0.98;;;21.80;27.70;;;;;;5066680;28;20029;-56
2021/04/29 02:23:46;;;;;;;1.65;1.05;;;21.80;27.70;;;;;;5078238;28;20028;-55
2021/04/29 02:26:16;;;;;;;1.85;1.10;;;21.80;27.70;;;;;;5073688;28;20040;-58
2021/04/29 02:28:42;;;;;;;1.60;1.20;;;21.80;27.80;;;;;;5074254;28;20031;-57
2021/04/29 02:31:10;;;;;;;1.88;1.30;;;21.80;28.30;;;;;;5072054;28;20016;-54
2021/04/29 02:33:36;;;;;;;1.73;1.35;;;21.80;27.80;;;;;;5071466;28;20114;-58
2021/04/29 02:36:07;;;;;;;1.50;1.02;;;21.80;27.80;;;;;;5070424;28;20499;-59
2021/04/29 02:38:37;;;;;;;1.52;1.23;;;21.80;27.80;;;;;;5068297;28;20063;-57
2021/04/29 02:41:05;;;;;;;1.88;1.20;;;21.70;27.80;;;;;;5073151;28;20181;-59
2021/04/29 02:43:31;;;;;;;2.40;1.38;;;21.80;27.90;;;;;;5068658;28;20029;-58
2021/04/29 02:45:57;;;;;;;1.20;1.10;;;21.70;27.90;;;;;;5071236;28;20094;-57
2021/04/29 02:48:24;;;;;;;1.20;1.10;;;21.70;27.90;;;;;;5071796;28;20039;-56
2021/04/29 02:50:50;;;;;;;1.70;1.35;;;21.70;27.90;;;;;;5051115;28;20045;-56
2021/04/29 02:53:20;;;;;;;2.00;1.50;;;21.70;27.90;;;;;;5073160;28;20024;-57
2021/04/29 02:55:48;;;;;;;1.48;1.23;;;21.70;28.00;;;;;;5068771;28;20028;-59
2021/04/29 02:58:16;;;;;;;1.75;1.10;;;21.70;28.00;;;;;;5067624;28;21808;-58
2021/04/29 03:00:43;;;;;;;2.08;1.23;;;21.70;28.00;;;;;;5069042;28;20025;-58
2021/04/29 03:03:09;;;;;;;2.08;1.35;;;21.70;28.00;;;;;;5067687;28;20033;-58
2021/04/29 03:05:37;;;;;;;1.88;1.45;;;21.70;28.00;;;;;;5073249;28;20063;-55
2021/04/29 03:08:03;;;;;;;1.65;1.45;;;21.70;28.10;;;;;;5075140;28;20078;-56
2021/04/29 03:10:30;;;;;;;1.60;1.35;;;21.70;28.10;;;;;;5073872;28;20020;-52
2021/04/29 03:12:59;;;;;;;2.42;1.40;;;21.70;28.10;;;;;;5064102;28;20451;-49
2021/04/29 03:15:25;;;;;;;1.60;1.08;;;21.70;28.20;;;;;;5067751;28;20039;-50
2021/04/29 03:17:51;;;;;;;1.90;1.35;;;21.70;28.20;;;;;;5068995;28;20029;-54
2021/04/29 03:20:17;;;;;;;1.50;1.27;;;21.70;28.20;;;;;;5063189;28;20043;-50
2021/04/29 03:22:43;;;;;;;1.88;1.40;;;21.60;28.20;;;;;;5064561;28;20035;-52
2021/04/29 03:25:09;;;;;;;2.22;1.42;;;21.60;28.20;;;;;;5062064;28;20414;-53
2021/04/29 03:27:35;;;;;;;1.50;1.20;;;21.60;28.30;;;;;;5048737;28;20046;-53
2021/04/29 03:30:00;;;;;;;1.67;1.27;;;21.60;28.30;;;;;;5063328;28;20424;-57
2021/04/29 03:32:27;;;;;;;2.05;1.38;;;21.60;28.30;;;;;;5066436;28;20072;-58
2021/04/29 03:34:52;;;;;;;2.10;1.25;;;21.60;28.40;;;;;;5045440;28;20037;-58
2021/04/29 03:37:18;;;;;;;1.95;1.38;;;21.60;28.40;;;;;;5064688;28;20093;-60
2021/04/29 03:39:44;;;;;;;1.70;1.40;;;21.60;28.40;;;;;;5064594;28;20064;-55
2021/04/29 03:42:11;;;;;;;2.22;1.17;;;21.60;28.40;;;;;;5057938;28;20158;-57
2021/04/29 03:44:38;;;;;;;2.10;1.40;;;21.60;28.40;;;;;;5062514;28;20139;-54
2021/04/29 03:47:04;;;;;;;3.78;1.50;;;21.60;28.50;;;;;;5068728;28;20104;-54
2021/04/29 03:49:31;;;;;;;2.13;1.48;;;21.60;28.50;;;;;;5065533;28;20024;-51
2021/04/29 03:51:58;;;;;;;1.70;1.30;;;21.60;28.50;;;;;;5067053;28;20037;-51
2021/04/29 03:54:23;;;;;;;1.25;1.15;;;21.60;28.60;;;;;;5067160;28;20043;-49
2021/04/29 03:56:51;;;;;;;1.73;1.25;;;21.60;28.60;;;;;;5071428;28;20065;-49
2021/04/29 03:59:17;;;;;;;1.27;1.08;;;21.60;28.60;;;;;;5066693;28;20029;-55
2021/04/29 04:01:43;;;;;;;1.67;1.27;;;21.50;28.60;;;;;;5067643;28;20036;-61
2021/04/29 04:04:09;;;;;;;1.80;1.25;;;21.50;28.60;;;;;;5063328;28;20698;-58
2021/04/29 04:06:35;;;;;;;2.88;1.40;;;21.50;28.70;;;;;;5054001;28;20028;-56
2021/04/29 04:09:01;;;;;;;1.77;1.30;;;21.50;28.70;;;;;;5070073;28;20038;-58
2021/04/29 04:11:26;;;;;;;2.08;1.40;;;21.50;28.70;;;;;;5048362;28;20109;-59
2021/04/29 04:13:53;;;;;;;2.20;1.30;;;21.50;28.70;;;;;;5073783;28;20028;-55
2021/04/29 04:16:19;;;;;;;1.77;1.48;;;21.50;28.70;;;;;;5074904;28;20450;-53
2021/04/29 04:18:45;;;;;;;2.65;1.40;;;21.50;28.70;;;;;;5083412;28;20036;-52
2021/04/29 04:21:12;;;;;;;1.80;1.35;;;21.50;28.80;;;;;;5083438;28;20040;-57
2021/04/29 04:23:38;;;;;;;1.85;1.30;;;21.50;28.80;;;;;;5083221;28;20088;-56
2021/04/29 04:26:04;;;;;;;1.88;1.50;;;21.50;28.80;;;;;;5087954;28;20131;-57
2021/04/29 04:28:29;;;;;;;1.95;1.50;;;21.50;28.80;;;;;;5084296;28;20036;-56
2021/04/29 04:30:56;;;;;;;1.40;1.30;;;21.50;28.80;;;;;;5084865;28;20024;-58
2021/04/29 04:33:22;;;;;;;2.10;1.38;;;21.50;28.80;;;;;;5066546;28;20486;-56
2021/04/29 04:35:48;;;;;;;1.20;1.10;;;21.50;28.90;;;;;;5086096;28;20039;-52
2021/04/29 04:38:13;;;;;;;2.03;1.33;;;21.50;28.90;;;;;;5080467;28;20024;-60
2021/04/29 04:40:39;;;;;;;1.20;0.98;;;21.50;28.90;;;;;;5071266;28;20075;-51
2021/04/29 04:43:05;;;;;;;1.63;1.20;;;21.50;28.90;;;;;;5066979;28;20032;-59
2021/04/29 04:45:31;;;;;;;2.15;1.17;;;21.40;28.90;;;;;;5075537;28;20051;-55
2021/04/29 04:47:57;;;;;;;1.77;1.30;;;21.50;29.40;;;;;;5074721;28;20052;-53
2021/04/29 04:50:23;;;;;;;1.27;1.10;;;21.50;28.90;;;;;;5074813;28;20072;-53
2021/04/29 04:52:49;;;;;;;1.85;1.13;;;21.60;29.00;;;;;;5073256;28;20454;-57
2021/04/29 04:55:16;;;;;;;1.70;1.15;;;21.60;28.90;;;;;;5073102;28;20021;-57
2021/04/29 04:57:42;;;;;;;1.45;1.05;;;21.60;28.90;;;;;;5075832;28;20039;-57
2021/04/29 05:00:09;;;;;;;1.50;1.30;;;21.60;29.00;;;;;;5050448;28;20040;-59
2021/04/29 05:02:41;;;;;;;1.33;1.20;;;21.60;29.00;;;;;;5076237;28;20028;-58
2021/04/29 05:05:07;;;;;;;1.38;1.27;;;21.70;29.00;;;;;;5073141;28;20044;-57
2021/04/29 05:07:33;;;;;;;1.67;1.33;;;21.70;29.10;;;;;;5071265;28;20043;-55
2021/04/29 05:09:59;;;;;;;1.83;1.15;;;21.70;29.10;;;;;;5071870;28;20540;-58
2021/04/29 05:12:25;;;;;;;2.35;1.30;;;21.70;29.10;;;;;;5074089;28;20020;-55
2021/04/29 05:14:51;;;;;;;1.92;1.48;;;21.70;29.10;;;;;;5074442;28;20029;-59
2021/04/29 05:17:17;;;;;;;1.63;1.20;;;21.80;29.20;;;;;;5075843;28;20073;-55
2021/04/29 05:19:44;;;;;;;3.45;1.50;;;21.80;29.20;;;;;;5067888;28;20033;-60
2021/04/29 05:22:10;;;;;;;1.40;1.20;;;21.80;29.20;;;;;;5068905;28;20036;-56
2021/04/29 05:24:36;;;;;;;2.20;1.20;;;21.80;29.20;;;;;;5078910;28;20044;-58
2021/04/29 05:27:02;;;;;;;1.65;1.13;;;21.80;29.20;;;;;;5077088;28;20021;-57
2021/04/29 05:29:28;;;;;;;2.20;1.42;;;21.90;29.30;;;;;;5072522;28;20060;-57
2021/04/29 05:31:54;;;;;;;1.73;1.35;;;21.80;29.30;;;;;;5067959;28;20029;-57
2021/04/29 05:34:19;;;;;;;2.17;1.40;;;21.80;29.40;;;;;;5073674;28;20440;-55
2021/04/29 05:36:45;;;;;;;1.90;1.15;;;21.90;29.50;;;;;;5073523;28;20458;-53
2021/04/29 05:39:12;;;;;;;2.00;1.50;;;21.90;29.50;;;;;;5072424;28;20019;-56
2021/04/29 05:41:38;;;;;;;2.40;1.25;;;21.90;29.60;;;;;;5060735;28;20029;-55
2021/04/29 05:44:04;;;;;;;1.98;1.40;;;21.90;29.60;;;;;;5072203;28;20390;-56
2021/04/29 05:46:30;;;;;;;1.60;1.25;;;21.90;29.60;;;;;;5070270;28;20514;-59
2021/04/29 05:48:56;;;;;;;2.03;1.27;;;21.90;29.60;;;;;;5068553;28;20032;-57
2021/04/29 05:51:22;;;;;;;3.35;1.55;;;21.90;29.60;;;;;;5071954;28;20028;-59
2021/04/29 05:53:47;;;;;;;2.00;1.42;;;21.90;29.60;;;;;;5072655;28;20515;-54
2021/04/29 05:56:15;;;;;;;1.67;1.35;;;21.90;29.90;;;;;;5067489;28;20049;-56
2021/04/29 05:58:41;;;;;;;1.60;1.35;;;21.90;29.70;;;;;;5070811;28;20032;-55
2021/04/29 06:01:08;;;;;;;1.80;1.30;;;21.90;29.70;;;;;;5073906;28;20028;-59
2021/04/29 06:03:33;;;;;;;1.75;1.40;;;21.90;29.80;;;;;;5067482;28;20344;-54
2021/04/29 06:05:59;;;;;;;2.17;1.35;;;21.90;29.80;;;;;;5072816;28;20094;-54
2021/04/29 06:08:25;;;;;;;1.88;1.40;;;21.80;29.80;;;;;;5063199;28;20111;-56
2021/04/29 06:10:51;;;;;;;2.33;1.45;;;21.80;30.00;;;;;;5067560;28;20349;-58
2021/04/29 06:13:16;;;;;;;1.75;1.40;;;21.80;30.20;;;;;;5052950;28;20044;-54
2021/04/29 06:15:42;;;;;;;2.22;1.60;;;21.80;30.40;;;;;;5062485;28;20131;-56
2021/04/29 06:18:08;;;;;;;1.92;1.30;;;21.80;30.50;;;;;;5070646;28;20123;-54
2021/04/29 06:20:34;;;;;;;1.98;1.30;;;21.80;30.60;;;;;;5069413;28;20047;-54
2021/04/29 06:23:00;;;;;;;2.25;1.10;;;21.80;30.60;;;;;;5065942;28;20043;-56
2021/04/29 06:25:26;;;;;;;1.35;1.23;;;21.90;30.40;;;;;;5078956;28;20044;-52
2021/04/29 06:27:52;;;;;;;1.52;1.17;;;21.90;30.30;;;;;;5058332;28;20028;-52
2021/04/29 06:30:18;;;;;;;1.73;1.20;;;22.00;30.30;;;;;;5068670;28;20036;-56
2021/04/29 06:32:43;;;;;;;1.85;1.13;;;22.00;30.10;;;;;;5061710;28;20040;-59
2021/04/29 06:35:10;;;;;;;1.98;1.30;;;22.10;30.10;;;;;;5071539;28;20127;-50
2021/04/29 06:37:37;;;;;;;1.80;1.35;;;22.10;30.00;;;;;;5066582;28;20400;-55
2021/04/29 06:40:03;;;;;;;1.80;1.23;;;22.10;30.00;;;;;;5072770;28;20029;-55
2021/04/29 06:42:29;;;;;;;1.88;1.27;;;22.10;30.00;;;;;;5066966;28;20020;-57
2021/04/29 06:44:54;;;;;;;1.98;1.10;;;22.10;30.00;;;;;;5075393;28;20489;-54
2021/04/29 06:47:21;;;;;;;1.63;1.30;;;22.20;30.00;;;;;;5062392;28;20040;-54
2021/04/29 06:49:48;;;;;;;1.80;1.30;;;22.20;30.00;;;;;;5068472;28;20028;-60
2021/04/29 06:52:16;;;;;;;4.00;1.60;;;22.20;30.00;;;;;;5066416;28;20469;-54
2021/04/29 06:54:42;;;;;;;2.25;1.27;;;22.20;30.00;;;;;;5078579;28;20065;-55
2021/04/29 06:57:08;;;;;;;2.70;1.38;;;22.20;30.00;;;;;;5075364;28;20107;-55
2021/04/29 06:59:34;;;;;;;2.80;1.20;;;22.30;30.00;;;;;;5072273;28;20161;-52
2021/04/29 07:02:00;;;;;;;1.75;1.20;;;22.20;30.10;;;;;;5074321;28;20054;-58
2021/04/29 07:04:26;;;;;;;1.35;1.10;;;22.20;30.20;;;;;;5071651;28;20063;-58
2021/04/29 07:06:52;;;;;;;3.28;1.48;;;22.30;30.30;;;;;;5060727;28;20040;-58
2021/04/29 07:09:18;;;;;;;2.22;1.23;;;22.30;30.30;;;;;;5066090;28;20025;-55
2021/04/29 07:11:43;;;;;;;1.40;1.23;;;22.30;30.30;;;;;;5071764;28;20036;-55
2021/04/29 07:14:09;;;;;;;1.30;1.08;;;22.30;30.30;;;;;;5069264;28;20070;-55
2021/04/29 07:16:35;;;;;;;3.42;1.25;;;22.30;30.40;;;;;;5065349;28;20032;-55
2021/04/29 07:19:01;;;;;;;1.92;1.17;;;22.30;30.40;;;;;;5085097;28;20699;-54
2021/04/29 07:21:27;;;;;;;1.70;1.40;;;22.30;30.40;;;;;;5079224;28;20440;-56
2021/04/29 07:23:52;;;;;;;2.95;1.50;;;22.30;30.40;;;;;;5041423;28;20596;-51
2021/04/29 07:26:18;;;;;;;2.35;1.23;;;22.30;30.50;;;;;;5073560;28;20361;-55
2021/04/29 07:28:45;;;;;;;2.20;1.20;;;22.30;30.50;;;;;;5069203;28;20304;-51
2021/04/29 07:31:11;;;;;;;2.00;1.40;;;22.30;30.50;;;;;;5071673;28;20104;-57
2021/04/29 07:33:37;;;;;;;1.55;1.20;;;22.30;30.60;;;;;;5076207;28;20412;-52
2021/04/29 07:36:04;;;;;;;2.03;1.08;;;22.30;30.60;;;;;;5074384;28;20039;-48
2021/04/29 07:38:30;;;;;;;1.70;1.40;;;22.30;30.60;;;;;;5069271;28;20068;-54
2021/04/29 07:40:56;;;;;;;1.90;1.38;;;22.30;30.60;;;;;;5064944;28;20052;-57
2021/04/29 07:43:22;;;;;;;2.17;1.60;;;22.30;30.70;;;;;;5072673;28;20017;-52
2021/04/29 07:45:47;;;;;;;2.20;1.52;;;22.30;30.80;;;;;;5079891;28;20490;-55
2021/04/29 07:48:13;;;;;;;2.53;1.50;;;22.30;30.80;;;;;;5068480;28;20042;-55
2021/04/29 07:50:39;;;;;;;1.77;1.40;;;22.30;30.80;;;;;;5066003;28;20029;-50
2021/04/29 07:53:05;;;;;;;3.65;1.60;;;22.30;30.80;;;;;;5065538;28;20028;-54
2021/04/29 07:55:31;;;;;;;2.28;1.60;;;22.30;30.90;;;;;;5061197;28;20443;-55
2021/04/29 07:57:57;;;;;;;4.55;1.88;;;22.30;30.90;;;;;;5049400;28;20115;-52
2021/04/29 08:00:23;;;;;;;2.55;1.70;;;22.30;31.00;;;;;;5073238;28;20511;-54
2021/04/29 08:02:49;;;;;;;2.70;1.70;;;22.30;31.00;;;;;;5079791;28;20324;-53
2021/04/29 08:05:17;;;;;;;3.35;1.60;;;22.30;31.10;;;;;;5077791;28;20079;-49
2021/04/29 08:07:43;;;;;;;2.25;1.50;;;22.30;31.20;;;;;;5067172;28;20032;-51
2021/04/29 08:10:10;;;;;;;1.88;1.40;;;22.30;31.20;;;;;;5066060;28;20036;-55
2021/04/29 08:12:37;;;;;;;2.75;1.90;;;22.40;31.30;;;;;;5062286;28;20051;-52
2021/04/29 08:15:05;;;;;;;2.30;1.50;;;22.30;31.30;;;;;;5077038;28;20032;-58
2021/04/29 08:17:31;;;;;;;2.22;1.50;;;22.30;31.20;;;;;;5072194;28;20020;-53
2021/04/29 08:19:58;;;;;;;2.55;1.60;;;22.30;31.20;;;;;;5082846;28;20031;-56
2021/04/29 08:22:26;;;;;;;2.38;1.60;;;22.30;31.30;;;;;;5080896;28;20388;-57
2021/04/29 08:24:53;;;;;;;1.70;1.23;;;22.30;31.40;;;;;;5079408;28;20045;-56
2021/04/29 08:27:19;;;;;;;1.65;1.38;;;22.30;31.30;;;;;;5079563;28;20103;-55
2021/04/29 08:29:44;;;;;;;2.50;1.60;;;22.30;31.40;;;;;;5081427;28;20124;-49
2021/04/29 08:32:10;;;;;;;2.05;1.40;;;22.30;31.30;;;;;;5081420;28;20032;-56
2021/04/29 08:34:36;;;;;;;2.15;1.35;;;22.40;31.40;;;;;;5084785;28;20040;-58
2021/04/29 08:37:02;;;;;;;2.13;1.45;;;22.40;31.40;;;;;;5081781;28;20089;-52
2021/04/29 08:39:28;;;;;;;2.40;1.25;;;22.40;31.40;;;;;;5086229;28;20077;-55
2021/04/29 08:41:54;;;;;;;2.70;1.77;;;22.40;31.40;;;;;;5086020;28;20021;-58
2021/04/29 08:44:20;;;;;;;2.35;1.50;;;22.40;31.40;;;;;;5086267;28;20055;-58
2021/04/29 08:46:46;;;;;;;1.98;1.35;;;22.40;31.40;;;;;;5083790;28;20044;-55
2021/04/29 08:49:16;;;;;;;1.73;1.23;;;22.40;31.30;;;;;;5079108;28;20031;-53
2021/04/29 08:51:42;;;;;;;1.92;1.17;;;22.50;31.40;;;;;;5078907;28;20044;-54
2021/04/29 08:54:08;;;;;;;1.90;1.30;;;22.50;31.40;;;;;;5073733;28;20039;-54
2021/04/29 08:56:33;;;;;;;2.72;1.38;;;22.50;31.40;;;;;;5074081;28;20456;-56
2021/04/29 08:59:00;;;;;;;3.17;1.75;;;22.50;31.50;;;;;;5080343;28;20032;-53
2021/04/29 09:01:37;;;;;;;2.63;1.60;;;22.50;31.60;;;;;;5078291;28;20039;-54
2021/04/29 09:04:23;;;;;;;2.65;1.67;;;22.50;31.60;;;;;;5066429;28;20143;-54
2021/04/29 09:06:50;;;;;;;1.98;1.63;;;22.50;31.60;;;;;;5072350;28;20468;-53
2021/04/29 09:09:18;;;;;;;2.30;1.50;;;22.50;31.60;;;;;;5074501;28;20024;-55
2021/04/29 09:11:51;;;;;;;2.15;1.48;;;22.50;31.60;;;;;;5076402;28;20089;-54
2021/04/29 09:14:32;;;;;;;2.70;1.33;;;22.50;31.60;;;;;;5073763;28;20082;-56
2021/04/29 09:16:59;;;;;;;1.65;1.20;;;22.50;32.20;;;;;;5069663;28;20274;-54
2021/04/29 09:19:27;;;;;;;2.80;1.33;;;22.50;31.60;;;;;;5075216;28;20025;-51
2021/04/29 09:21:54;;;;;;;2.55;1.50;;;22.50;31.60;;;;;;5074464;28;20469;-52
2021/04/29 09:24:32;;;;;;;2.97;1.50;;;22.50;31.70;;;;;;5088201;28;20365;-55
2021/04/29 09:27:12;;;;;;;2.83;1.48;;;22.50;31.80;;;;;;5096577;28;20036;-55
2021/04/29 09:29:49;;;;;;;1.48;1.02;;;22.50;31.70;;;;;;5074933;28;20349;-53
2021/04/29 09:32:41;;;;;;;1.25;1.00;;;22.50;31.70;;;;;;5064158;28;20039;-56
2021/04/29 09:35:19;;;;;;;1.98;1.15;;;22.50;31.60;;;;;;5063611;28;20071;-54
2021/04/29 09:37:46;;;;;;;1.98;1.20;;;22.50;31.60;;;;;;5049686;28;20028;-55
2021/04/29 09:40:25;;;;;;;1.23;1.00;;;22.50;31.60;;;;;;5061804;28;20337;-55
2021/04/29 09:42:52;;;;;;;1.30;1.20;;;22.50;31.60;;;;;;5059414;28;20044;-56
2021/04/29 09:45:28;;;;;;;1.77;1.15;;;22.50;31.60;;;;;;5063495;28;20123;-58
2021/04/29 09:48:13;;;;;;;1.60;1.38;;;22.50;31.60;;;;;;5065733;28;20406;-56
2021/04/29 09:50:43;;;;;;;1.48;1.30;;;22.50;31.60;;;;;;5065361;28;20512;-56
2021/04/29 09:53:12;;;;;;;1.98;1.50;;;22.50;31.50;;;;;;5050339;28;20036;-54
2021/04/29 09:55:41;;;;;;;1.80;1.42;;;22.50;31.50;;;;;;5064423;28;20052;-58
2021/04/29 09:58:13;;;;;;;2.42;1.70;;;22.50;31.50;;;;;;5073650;28;20059;-57
2021/04/29 10:00:40;;;;;;;2.00;1.27;;;22.50;31.60;;;;;;5060003;28;20033;-61
2021/04/29 10:03:06;;;;;;;2.05;1.60;;;22.50;31.60;;;;;;5062046;28;20028;-61
2021/04/29 10:05:37;;;;;;;1.95;1.38;;;22.50;31.70;;;;;;5066949;28;20127;-63
2021/04/29 10:08:04;;;;;;;1.50;1.20;;;22.50;31.80;;;;;;5064394;28;20421;-63
2021/04/29 10:10:33;;;;;;;1.70;1.30;;;22.50;31.80;;;;;;5054607;28;20037;-64
2021/04/29 10:13:03;;;;;;;2.20;1.60;;;22.50;31.90;;;;;;5036691;28;20054;-58
2021/04/29 10:15:32;;;;;;;2.28;1.77;;;22.50;32.00;;;;;;5054256;28;20024;-59
2021/04/29 10:17:58;;;;;;;2.97;1.77;;;22.50;32.10;;;;;;5062440;28;20131;-57
2021/04/29 10:20:26;;;;;;;2.33;1.92;;;22.50;32.30;;;;;;5058459;28;20089;-59
2021/04/29 10:22:53;;;;;;;1.77;1.63;;;22.50;32.50;;;;;;5055588;28;20456;-59
2021/04/29 10:25:33;;;;;;;2.40;1.60;;;22.50;32.60;;;;;;5069061;28;20324;-50
2021/04/29 10:28:00;;;;;;;2.13;1.75;;;22.50;32.70;;;;;;5064159;28;20033;-57
2021/04/29 10:30:37;;;;;;;2.47;2.00;;;22.50;32.70;;;;;;5069722;28;20036;-61
2021/04/29 10:33:18;;;;;;;2.75;1.83;;;22.50;32.90;;;;;;5067961;28;20048;-66
2021/04/29 10:35:58;;;;;;;2.20;1.90;;;22.50;33.00;;;;;;5067760;28;20040;-58
2021/04/29 10:38:33;;;;;;;2.20;1.63;;;22.50;32.90;;;;;;5079541;28;20035;-60
2021/04/29 10:41:04;;;;;;;2.15;1.75;;;22.60;32.90;;;;;;5064701;28;20028;-65
2021/04/29 10:43:36;;;;;;;1.95;1.42;;;22.60;32.70;;;;;;5060756;28;20030;-62
2021/04/29 10:46:06;;;;;;;2.58;1.70;;;22.70;32.70;;;;;;5062851;28;20508;-61
2021/04/29 10:48:48;;;;;;;3.08;1.52;;;22.80;32.70;;;;;;5080801;28;20105;-57
2021/04/29 10:51:14;;;;;;;2.38;1.50;;;22.80;32.50;;;;;;5091693;28;20032;-59
2021/04/29 10:53:40;;;;;;;1.88;1.30;;;22.90;32.50;;;;;;5094934;28;20099;-62
2021/04/29 10:56:16;;;;;;;3.88;1.70;;;22.90;32.40;;;;;;5095079;28;20032;-56
2021/04/29 10:58:42;;;;;;;1.90;1.42;;;23.00;32.30;;;;;;5074716;28;20379;-63
2021/04/29 11:01:19;;;;;;;2.45;1.50;;;23.00;32.20;;;;;;5075140;28;20074;-62
2021/04/29 11:03:50;;;;;;;1.95;1.30;;;23.00;32.10;;;;;;5085059;28;20308;-62
2021/04/29 11:06:25;;;;;;;2.00;1.35;;;23.10;32.10;;;;;;5092462;28;20055;-62
2021/04/29 11:08:52;;;;;;;1.55;1.30;;;23.10;32.00;;;;;;5077263;28;20028;-56
2021/04/29 11:11:21;;;;;;;3.47;1.30;;;23.10;32.00;;;;;;5074763;28;20064;-60
2021/04/29 11:14:07;;;;;;;1.30;1.10;;;23.20;32.00;;;;;;5084966;28;20399;-64
2021/04/29 11:17:02;;;;;;;1.60;1.30;;;23.20;32.00;;;;;;5057001;28;20466;-62
2021/04/29 11:19:42;;;;;;;1.23;1.00;;;23.20;31.90;;;;;;5057728;28;20047;-63
2021/04/29 11:22:18;;;;;;;2.13;1.20;;;23.20;32.00;;;;;;5056645;28;20047;-63
2021/04/29 11:24:49;;;;;;;1.48;1.30;;;23.30;32.00;;;;;;5073487;28;20091;-60
2021/04/29 11:27:25;;;;;;;1.65;0.93;;;23.30;31.90;;;;;;5080037;28;20040;-59
2021/04/29 11:29:58;;;;;;;1.50;1.17;;;23.30;31.90;;;;;;5074273;28;20025;-60
2021/04/29 11:32:25;;;;;;;1.88;1.00;;;23.30;31.80;;;;;;5070864;28;20029;-60
2021/04/29 11:34:53;;;;;;;1.23;1.10;;;23.30;31.80;;;;;;5074058;28;20024;-61
2021/04/29 11:37:19;;;;;;;1.25;0.90;;;23.20;32.40;;;;;;5065275;28;20036;-59
2021/04/29 11:40:04;;;;;;;2.17;1.00;;;23.30;31.80;;;;;;5076079;28;20040;-57
2021/04/29 11:42:32;;;;;;;1.23;0.80;;;23.20;31.80;;;;;;5094383;28;20028;-61
2021/04/29 11:45:21;;;;;;;1.15;1.05;;;23.20;31.80;;;;;;5094614;28;20549;-56
2021/04/29 11:48:02;;;;;;;2.00;1.15;;;23.20;31.70;;;;;;5092221;28;20517;-62
2021/04/29 11:50:33;;;;;;;0.80;0.80;;;23.20;31.80;;;;;;5080596;28;20112;-62
2021/04/29 11:53:26;;;;;;;1.45;0.98;;;23.20;31.70;;;;;;5066660;28;20028;-59
2021/04/29 11:55:59;;;;;;;1.20;1.00;;;23.20;31.60;;;;;;5074072;28;20436;-59
2021/04/29 11:58:26;;;;;;;0.73;0.68;;;23.10;31.60;;;;;;5077071;28;20024;-59
2021/04/29 12:00:54;;;;;;;1.60;0.80;;;23.10;31.60;;;;;;5080720;28;20060;-58
2021/04/29 12:03:22;;;;;;;1.63;0.93;;;23.10;31.70;;;;;;5074028;28;20037;-55
2021/04/29 12:05:50;;;;;;;1.45;0.90;;;23.10;31.70;;;;;;5084830;28;20100;-56
2021/04/29 12:08:20;;;;;;;1.13;0.90;;;23.10;31.80;;;;;;5067959;28;20029;-57
2021/04/29 12:10:55;;;;;;;1.10;1.00;;;23.10;31.80;;;;;;5077124;28;20044;-57
2021/04/29 12:13:36;;;;;;;0.75;0.75;;;23.10;31.70;;;;;;5075281;28;20024;-54
2021/04/29 12:16:07;;;;;;;1.52;0.80;;;23.10;31.70;;;;;;5072605;28;20134;-58
2021/04/29 12:18:34;;;;;;;0.93;0.80;;;23.10;31.60;;;;;;5063355;28;20076;-60
2021/04/29 12:21:01;;;;;;;0.88;0.80;;;23.10;31.60;;;;;;5057566;28;20036;-57
2021/04/29 12:23:27;;;;;;;1.20;0.90;;;23.10;31.70;;;;;;5076098;28;20458;-61
2021/04/29 12:25:58;;;;;;;1.00;0.90;;;23.10;32.40;;;;;;5076496;28;20048;-59
2021/04/29 12:28:33;;;;;;;1.35;0.98;;;23.10;31.80;;;;;;5079249;28;20079;-62
2021/04/29 12:31:20;;;;;;;1.33;0.95;;;23.10;31.80;;;;;;5064271;28;20065;-55
2021/04/29 12:34:16;;;;;;;1.90;0.90;;;23.10;31.70;;;;;;5076784;28;20444;-59
2021/04/29 12:36:51;;;;;;;1.08;0.70;;;23.10;31.60;;;;;;5077746;28;20117;-55
2021/04/29 12:39:19;;;;;;;1.10;0.70;;;23.10;31.50;;;;;;5089957;28;20043;-55
2021/04/29 12:41:53;;;;;;;1.45;0.95;;;23.10;31.40;;;;;;5080517;28;20032;-57
2021/04/29 12:44:19;;;;;;;0.80;0.70;;;23.10;31.30;;;;;;5087127;28;20063;-57
2021/04/29 12:46:45;;;;;;;0.85;0.73;;;23.10;31.20;;;;;;5084115;28;20111;-58
2021/04/29 12:49:13;;;;;;;0.88;0.68;;;23.20;31.20;;;;;;5051817;28;20039;-61
2021/04/29 12:51:39;;;;;;;1.05;0.70;;;23.20;31.10;;;;;;5089314;28;20094;-61
2021/04/29 12:54:16;;;;;;;1.88;0.85;;;23.20;31.00;;;;;;5077000;28;20025;-59